Time;durP1;ratioP1;P1;durP2;ratioP2;P2;SDS_P1;SDS_P2;PMS_P1;PMS_P2;Temp;Humidity;BMP_temperature;BMP_pressure;BME280_temperature;BME280_humidity;BME280_pressure;Samples;Min_cycle;Max_cycle;Signal;HPM_P1;HPM_P2
2022/04/15 00:00:56;;;;;;;3.50;1.87;;;;;;;;;;5065602;28;20179;-87
2022/04/15 00:03:22;;;;;;;5.47;1.83;;;;;;;;;;5064749;28;20431;-88
2022/04/15 00:05:48;;;;;;;3.10;1.90;;;;;;;;;;5065409;28;20176;-86
2022/04/15 00:08:14;;;;;;;2.55;1.80;;;;;;;;;;5066904;28;20439;-87
2022/04/15 00:10:45;;;;;;;3.08;1.75;;;;;;;;;;5068892;28;20173;-87
2022/04/15 00:13:11;;;;;;;4.18;2.15;;;;;;;;;;5066424;28;20196;-87
2022/04/15 00:15:37;;;;;;;3.65;2.00;;;;;;;;;;5066757;28;20209;-86
2022/04/15 00:18:03;;;;;;;2.22;2.03;;;;;;;;;;5066002;28;20188;-87
2022/04/15 00:20:29;;;;;;;1.60;1.50;;;;;;;;;;5064046;28;20182;-87
2022/04/15 00:22:58;;;;;;;2.70;2.10;;;;;;;;;;5069753;28;20237;-86
2022/04/15 00:25:24;;;;;;;2.33;1.90;;;;;;;;;;5063886;28;20165;-87
2022/04/15 00:27:50;;;;;;;3.35;1.55;;;;;;;;;;5061495;28;20189;-87
2022/04/15 00:30:16;;;;;;;1.90;1.77;;;;;;;;;;5062603;28;20191;-87
2022/04/15 00:32:42;;;;;;;4.15;2.40;;;;;;;;;;5062962;28;20250;-87
2022/04/15 00:35:09;;;;;;;3.30;2.28;;;;;;;;;;5064641;28;20281;-86
2022/04/15 00:37:35;;;;;;;2.33;2.03;;;;;;;;;;5063965;28;20207;-87
2022/04/15 00:40:02;;;;;;;2.83;1.90;;;;;;;;;;5061972;28;20181;-87
2022/04/15 00:42:29;;;;;;;3.55;1.80;;;;;;;;;;5062923;28;20446;-87
2022/04/15 00:44:55;;;;;;;4.55;2.15;;;;;;;;;;5061661;28;20178;-86
2022/04/15 00:47:39;;;;;;;3.70;2.72;;;;;;;;;;5063367;28;20187;-86
2022/04/15 00:50:06;;;;;;;2.25;2.00;;;;;;;;;;5062293;28;20173;-87
2022/04/15 00:52:35;;;;;;;4.55;2.22;;;;;;;;;;5062966;28;20204;-86
2022/04/15 00:55:05;;;;;;;3.08;1.73;;;;;;;;;;5062694;28;20177;-87
2022/04/15 00:57:33;;;;;;;1.88;1.77;;;;;;;;;;5077632;28;20259;-87
2022/04/15 01:00:00;;;;;;;2.78;2.00;;;;;;;;;;5062249;28;20173;-87
2022/04/15 01:02:26;;;;;;;2.95;1.80;;;;;;;;;;5062624;28;20554;-87
2022/04/15 01:04:53;;;;;;;2.67;1.73;;;;;;;;;;5065523;28;20181;-84
2022/04/15 01:07:20;;;;;;;3.65;1.95;;;;;;;;;;5062877;28;20180;-86
2022/04/15 01:09:48;;;;;;;2.60;2.40;;;;;;;;;;5064201;28;20177;-86
2022/04/15 01:12:15;;;;;;;3.85;1.92;;;;;;;;;;5060893;28;20189;-86
2022/04/15 01:14:43;;;;;;;3.55;2.33;;;;;;;;;;5061493;28;20213;-87
2022/04/15 01:17:08;;;;;;;3.05;2.40;;;;;;;;;;5063748;28;20208;-86
2022/04/15 01:19:34;;;;;;;2.60;1.50;;;;;;;;;;5064486;28;20234;-87
2022/04/15 01:22:02;;;;;;;1.73;1.63;;;;;;;;;;5062154;28;20434;-86
2022/04/15 01:24:31;;;;;;;3.53;1.85;;;;;;;;;;5061149;28;20431;-86
2022/04/15 01:26:58;;;;;;;2.97;1.67;;;;;;;;;;5060623;28;20201;-86
2022/04/15 01:29:27;;;;;;;2.22;2.03;;;;;;;;;;5077338;28;20185;-86
2022/04/15 01:31:53;;;;;;;2.83;2.10;;;;;;;;;;5079675;28;20256;-84
2022/04/15 01:34:19;;;;;;;1.92;1.83;;;;;;;;;;5063003;28;20184;-86
2022/04/15 01:36:45;;;;;;;2.40;2.20;;;;;;;;;;5062145;28;20209;-87
2022/04/15 01:39:11;;;;;;;2.10;1.77;;;;;;;;;;5060547;28;20192;-87
2022/04/15 01:41:40;;;;;;;2.92;1.80;;;;;;;;;;5061796;28;20268;-87
2022/04/15 01:44:08;;;;;;;2.70;2.50;;;;;;;;;;5063878;28;20252;-86
2022/04/15 01:46:34;;;;;;;2.00;1.77;;;;;;;;;;5063660;28;20169;-88
2022/04/15 01:49:00;;;;;;;1.97;1.77;;;;;;;;;;5060374;28;20189;-87
2022/04/15 01:51:25;;;;;;;2.67;2.22;;;;;;;;;;5062009;28;20443;-86
2022/04/15 01:53:53;;;;;;;6.20;2.50;;;;;;;;;;5061624;28;20185;-87
2022/04/15 01:56:19;;;;;;;3.22;2.58;;;;;;;;;;5060741;28;20475;-87
2022/04/15 01:58:45;;;;;;;2.33;2.10;;;;;;;;;;5064717;28;20180;-88
2022/04/15 02:01:11;;;;;;;2.00;1.90;;;;;;;;;;5061160;28;20488;-87
2022/04/15 02:03:37;;;;;;;3.63;2.30;;;;;;;;;;5060608;28;20438;-87
2022/04/15 02:06:03;;;;;;;3.63;2.40;;;;;;;;;;5060318;28;20434;-87
2022/04/15 02:08:29;;;;;;;2.70;1.90;;;;;;;;;;5076385;28;20189;-87
2022/04/15 02:10:55;;;;;;;2.23;1.90;;;;;;;;;;5064363;28;20314;-85
2022/04/15 02:13:21;;;;;;;2.90;2.10;;;;;;;;;;5063721;28;20463;-87
2022/04/15 02:15:47;;;;;;;3.10;2.60;;;;;;;;;;5061506;28;20467;-87
2022/04/15 02:18:13;;;;;;;4.13;2.90;;;;;;;;;;5060707;28;20439;-86
2022/04/15 02:20:39;;;;;;;2.10;1.92;;;;;;;;;;5059755;28;20177;-87
2022/04/15 02:23:05;;;;;;;1.80;1.70;;;;;;;;;;5062903;28;20176;-87
2022/04/15 02:25:31;;;;;;;2.35;2.15;;;;;;;;;;5062395;28;20181;-87
2022/04/15 02:27:57;;;;;;;1.90;1.80;;;;;;;;;;5060585;28;20185;-86
2022/04/15 02:30:23;;;;;;;2.40;2.20;;;;;;;;;;5075371;28;20443;-86
2022/04/15 02:32:49;;;;;;;3.67;2.08;;;;;;;;;;5059571;28;20212;-86
2022/04/15 02:35:15;;;;;;;2.83;2.63;;;;;;;;;;5061568;28;20698;-87
2022/04/15 02:37:41;;;;;;;4.35;2.30;;;;;;;;;;5062554;28;20211;-87
2022/04/15 02:40:07;;;;;;;2.22;2.00;;;;;;;;;;5060561;28;20199;-88
2022/04/15 02:42:34;;;;;;;2.85;2.25;;;;;;;;;;5058755;28;20207;-87
2022/04/15 02:45:00;;;;;;;2.53;2.33;;;;;;;;;;5058809;28;20185;-87
2022/04/15 02:47:26;;;;;;;3.65;2.53;;;;;;;;;;5062647;28;20219;-87
2022/04/15 02:49:52;;;;;;;4.75;2.47;;;;;;;;;;5078938;28;20177;-86
2022/04/15 02:52:18;;;;;;;4.97;2.67;;;;;;;;;;5059819;28;20180;-87
2022/04/15 02:54:44;;;;;;;2.67;1.83;;;;;;;;;;5060722;28;20435;-87
2022/04/15 02:57:10;;;;;;;3.50;2.35;;;;;;;;;;5059761;28;20467;-86
2022/04/15 02:59:36;;;;;;;3.70;2.40;;;;;;;;;;5059023;28;20177;-86
2022/04/15 03:02:02;;;;;;;2.57;2.37;;;;;;;;;;5078387;28;20200;-86
2022/04/15 03:04:29;;;;;;;2.47;2.28;;;;;;;;;;5060985;28;20428;-87
2022/04/15 03:06:55;;;;;;;3.30;2.50;;;;;;;;;;5060398;28;20205;-86
2022/04/15 03:09:25;;;;;;;3.08;2.20;;;;;;;;;;5060020;28;20189;-87
2022/04/15 03:11:51;;;;;;;2.97;2.28;;;;;;;;;;5059348;28;20212;-87
2022/04/15 03:14:17;;;;;;;2.13;1.92;;;;;;;;;;5059310;28;20225;-86
2022/04/15 03:16:44;;;;;;;2.60;2.00;;;;;;;;;;5063615;28;20266;-86
2022/04/15 03:19:10;;;;;;;3.17;2.50;;;;;;;;;;5060161;28;20597;-86
2022/04/15 03:21:36;;;;;;;3.25;2.20;;;;;;;;;;5060058;28;20185;-85
2022/04/15 03:24:02;;;;;;;2.50;2.20;;;;;;;;;;5059049;28;20196;-86
2022/04/15 03:26:28;;;;;;;2.55;2.05;;;;;;;;;;5074945;28;20273;-86
2022/04/15 03:28:54;;;;;;;1.90;1.80;;;;;;;;;;5070924;28;20185;-86
2022/04/15 03:31:20;;;;;;;2.50;2.30;;;;;;;;;;5060983;28;20195;-86
2022/04/15 03:33:46;;;;;;;2.20;1.90;;;;;;;;;;5060841;28;20244;-86
2022/04/15 03:36:13;;;;;;;4.13;2.13;;;;;;;;;;5058112;28;20216;-87
2022/04/15 03:38:40;;;;;;;3.22;2.33;;;;;;;;;;5059618;28;20174;-86
2022/04/15 03:41:06;;;;;;;4.32;2.15;;;;;;;;;;5061667;28;20169;-85
2022/04/15 03:43:32;;;;;;;5.25;2.55;;;;;;;;;;5061013;28;20193;-86
2022/04/15 03:45:59;;;;;;;3.55;2.47;;;;;;;;;;5058527;28;20188;-86
2022/04/15 03:48:25;;;;;;;3.05;2.20;;;;;;;;;;5058187;28;20178;-86
2022/04/15 03:50:51;;;;;;;2.75;1.95;;;;;;;;;;5057933;28;20638;-86
2022/04/15 03:53:17;;;;;;;4.13;2.38;;;;;;;;;;5060513;28;20270;-86
2022/04/15 03:55:43;;;;;;;2.27;2.07;;;;;;;;;;5062547;28;20177;-86
2022/04/15 03:58:11;;;;;;;4.10;2.78;;;;;;;;;;5063516;28;20489;-86
2022/04/15 04:00:37;;;;;;;3.75;2.20;;;;;;;;;;5061614;28;20181;-85
2022/04/15 04:03:03;;;;;;;2.40;2.20;;;;;;;;;;5061843;28;20189;-85
2022/04/15 04:05:29;;;;;;;2.40;1.90;;;;;;;;;;5062858;28;20747;-86
2022/04/15 04:07:55;;;;;;;2.73;1.90;;;;;;;;;;5082091;28;20423;-85
2022/04/15 04:10:21;;;;;;;3.45;2.47;;;;;;;;;;5062453;28;20457;-86
2022/04/15 04:12:48;;;;;;;3.42;2.67;;;;;;;;;;5062555;28;20239;-86
2022/04/15 04:15:14;;;;;;;2.53;2.33;;;;;;;;;;5063318;28;20307;-86
2022/04/15 04:17:41;;;;;;;2.70;2.10;;;;;;;;;;5062066;28;20217;-86
2022/04/15 04:20:08;;;;;;;2.35;2.15;;;;;;;;;;5065379;28;20187;-86
2022/04/15 04:22:34;;;;;;;3.90;2.95;;;;;;;;;;5064778;28;20169;-85
2022/04/15 04:25:00;;;;;;;2.03;1.92;;;;;;;;;;5064349;28;20176;-85
2022/04/15 04:27:26;;;;;;;3.50;2.17;;;;;;;;;;5061521;28;20276;-85
2022/04/15 04:29:52;;;;;;;4.05;1.88;;;;;;;;;;5061560;28;20185;-84
2022/04/15 04:32:19;;;;;;;2.85;2.05;;;;;;;;;;5063820;28;20236;-85
2022/04/15 04:34:45;;;;;;;2.83;2.22;;;;;;;;;;5064366;28;20177;-85
2022/04/15 04:37:11;;;;;;;5.28;2.60;;;;;;;;;;5061090;28;20212;-86
2022/04/15 04:39:37;;;;;;;4.13;1.93;;;;;;;;;;5062386;28;20476;-85
2022/04/15 04:42:03;;;;;;;1.88;1.77;;;;;;;;;;5064732;28;20439;-85
2022/04/15 04:44:31;;;;;;;2.80;2.60;;;;;;;;;;5060868;28;20178;-84
2022/04/15 04:46:57;;;;;;;2.35;2.20;;;;;;;;;;5074388;28;20173;-84
2022/04/15 04:49:24;;;;;;;2.17;1.98;;;;;;;;;;5062329;28;20203;-85
2022/04/15 04:51:50;;;;;;;2.13;1.85;;;;;;;;;;5062354;28;20177;-85
2022/04/15 04:54:16;;;;;;;2.60;2.05;;;;;;;;;;5062562;28;20199;-85
2022/04/15 04:56:42;;;;;;;2.25;1.73;;;;;;;;;;5061703;28;20205;-85
2022/04/15 04:59:09;;;;;;;1.95;1.80;;;;;;;;;;5080055;28;20180;-84
2022/04/15 05:01:35;;;;;;;3.55;2.60;;;;;;;;;;5062245;28;20174;-84
2022/04/15 05:04:01;;;;;;;3.40;2.20;;;;;;;;;;5061782;28;20195;-85
2022/04/15 05:06:27;;;;;;;2.47;2.27;;;;;;;;;;5059963;28;20485;-83
2022/04/15 05:08:53;;;;;;;2.58;2.03;;;;;;;;;;5061182;28;20514;-85
2022/04/15 05:11:19;;;;;;;3.08;1.90;;;;;;;;;;5061828;28;20205;-85
2022/04/15 05:13:45;;;;;;;2.47;2.27;;;;;;;;;;5065013;28;20177;-85
2022/04/15 05:16:11;;;;;;;1.98;1.88;;;;;;;;;;5063742;28;20475;-85
2022/04/15 05:18:36;;;;;;;3.90;2.27;;;;;;;;;;5061836;28;20177;-85
2022/04/15 05:21:03;;;;;;;2.43;1.80;;;;;;;;;;5076827;28;20933;-85
2022/04/15 05:23:29;;;;;;;3.40;3.10;;;;;;;;;;5077061;28;20478;-84
2022/04/15 05:25:55;;;;;;;2.08;1.98;;;;;;;;;;5064888;28;20244;-83
2022/04/15 05:28:21;;;;;;;2.90;2.20;;;;;;;;;;5061410;28;20178;-85
2022/04/15 05:30:47;;;;;;;2.67;2.47;;;;;;;;;;5062353;28;20839;-83
2022/04/15 05:33:13;;;;;;;2.80;1.90;;;;;;;;;;5063892;28;20189;-84
2022/04/15 05:35:39;;;;;;;3.40;1.93;;;;;;;;;;5060155;28;20475;-84
2022/04/15 05:38:07;;;;;;;3.60;2.67;;;;;;;;;;5077093;28;20884;-83
2022/04/15 05:40:33;;;;;;;6.40;4.20;;;;;;;;;;5064791;28;20416;-85
2022/04/15 05:42:59;;;;;;;2.50;2.30;;;;;;;;;;5068837;28;20186;-84
2022/04/15 05:45:25;;;;;;;2.70;2.15;;;;;;;;;;5053965;28;20180;-85
2022/04/15 05:47:53;;;;;;;6.85;2.08;;;;;;;;;;5060182;28;20181;-84
2022/04/15 05:50:20;;;;;;;2.22;2.00;;;;;;;;;;5059998;28;20248;-85
2022/04/15 05:52:46;;;;;;;2.50;1.58;;;;;;;;;;5064024;28;20195;-85
2022/04/15 05:55:12;;;;;;;3.78;2.13;;;;;;;;;;5060477;28;20189;-85
2022/04/15 05:57:38;;;;;;;2.20;1.80;;;;;;;;;;5060163;28;20315;-85
2022/04/15 06:00:05;;;;;;;2.55;2.20;;;;;;;;;;5062394;28;20177;-84
2022/04/15 06:02:31;;;;;;;2.20;1.85;;;;;;;;;;5069615;28;20182;-83
2022/04/15 06:04:58;;;;;;;3.55;1.83;;;;;;;;;;5074481;28;20170;-83
2022/04/15 06:07:24;;;;;;;3.35;2.10;;;;;;;;;;5062220;28;20181;-85
2022/04/15 06:09:50;;;;;;;3.20;2.35;;;;;;;;;;5061277;28;20212;-86
2022/04/15 06:12:16;;;;;;;2.90;2.57;;;;;;;;;;5060426;28;20260;-85
2022/04/15 06:14:42;;;;;;;3.58;2.03;;;;;;;;;;5059159;28;20471;-83
2022/04/15 06:17:08;;;;;;;2.50;2.05;;;;;;;;;;5062931;28;20201;-84
2022/04/15 06:19:34;;;;;;;2.60;2.40;;;;;;;;;;5063900;28;20179;-85
2022/04/15 06:22:00;;;;;;;6.68;2.35;;;;;;;;;;5061018;28;20185;-86
2022/04/15 06:24:26;;;;;;;3.33;2.80;;;;;;;;;;5060855;28;20177;-85
2022/04/15 06:26:52;;;;;;;2.53;2.33;;;;;;;;;;5059469;28;20450;-87
2022/04/15 06:29:18;;;;;;;2.80;2.40;;;;;;;;;;5061795;28;20493;-87
2022/04/15 06:31:44;;;;;;;5.03;3.33;;;;;;;;;;5062384;28;20201;-86
2022/04/15 06:34:10;;;;;;;2.50;2.30;;;;;;;;;;5058838;28;20199;-82
2022/04/15 06:36:36;;;;;;;4.50;3.07;;;;;;;;;;5060028;28;20201;-81
2022/04/15 06:39:02;;;;;;;3.08;2.70;;;;;;;;;;5060785;28;20493;-83
2022/04/15 06:41:28;;;;;;;3.85;2.72;;;;;;;;;;5060189;28;20228;-85
2022/04/15 06:43:54;;;;;;;3.20;2.90;;;;;;;;;;5079139;28;20273;-84
2022/04/15 06:46:20;;;;;;;4.40;3.30;;;;;;;;;;5059685;28;20220;-84
2022/04/15 06:48:46;;;;;;;5.18;3.00;;;;;;;;;;5060845;28;20239;-85
2022/04/15 06:51:12;;;;;;;3.63;3.10;;;;;;;;;;5057509;28;20196;-84
2022/04/15 06:53:38;;;;;;;3.88;3.28;;;;;;;;;;5060420;28;20185;-83
2022/04/15 06:56:04;;;;;;;5.53;3.13;;;;;;;;;;5073695;28;20207;-84
2022/04/15 06:58:30;;;;;;;4.30;2.88;;;;;;;;;;5060222;28;20424;-86
2022/04/15 07:00:56;;;;;;;6.03;3.57;;;;;;;;;;5059248;28;20541;-85
2022/04/15 07:03:24;;;;;;;3.97;3.57;;;;;;;;;;5062734;28;20443;-83
2022/04/15 07:05:51;;;;;;;6.97;3.75;;;;;;;;;;5069366;28;20427;-87
2022/04/15 07:08:17;;;;;;;4.45;3.22;;;;;;;;;;5063418;28;20174;-92
2022/04/15 07:10:43;;;;;;;4.65;4.03;;;;;;;;;;5061890;28;20195;-92
2022/04/15 07:13:10;;;;;;;4.23;3.83;;;;;;;;;;5059006;28;20184;-92
2022/04/15 07:15:36;;;;;;;7.65;3.80;;;;;;;;;;5062187;28;20481;-91
2022/04/15 07:18:05;;;;;;;4.82;4.30;;;;;;;;;;5043493;28;20290;-91
2022/04/15 07:20:31;;;;;;;4.45;3.97;;;;;;;;;;5043561;28;20424;-90
2022/04/15 07:22:58;;;;;;;4.45;4.05;;;;;;;;;;5061370;28;20196;-91
2022/04/15 07:25:24;;;;;;;6.78;3.80;;;;;;;;;;5043853;28;20230;-91
2022/04/15 07:27:50;;;;;;;5.60;3.97;;;;;;;;;;5044760;28;20260;-90
2022/04/15 07:30:17;;;;;;;4.43;3.70;;;;;;;;;;5063462;28;20200;-91
2022/04/15 07:32:44;;;;;;;5.15;3.88;;;;;;;;;;5047197;28;20223;-90
2022/04/15 07:35:10;;;;;;;3.55;3.25;;;;;;;;;;5047912;28;20240;-91
2022/04/15 07:37:36;;;;;;;4.07;3.47;;;;;;;;;;5065109;28;20228;-90
2022/04/15 07:40:02;;;;;;;3.40;3.10;;;;;;;;;;5062089;28;20212;-88
2022/04/15 07:42:29;;;;;;;6.43;4.28;;;;;;;;;;5047379;28;20178;-91
2022/04/15 07:44:54;;;;;;;3.25;2.95;;;;;;;;;;5046857;28;20181;-90
2022/04/15 07:47:21;;;;;;;3.93;2.90;;;;;;;;;;5047406;28;20281;-90
2022/04/15 07:49:47;;;;;;;4.05;3.20;;;;;;;;;;5068155;28;20514;-91
2022/04/15 07:52:13;;;;;;;3.08;2.75;;;;;;;;;;5048045;28;20182;-90
2022/04/15 07:54:39;;;;;;;4.47;2.85;;;;;;;;;;5048529;28;20211;-88
2022/04/15 07:57:05;;;;;;;4.10;2.93;;;;;;;;;;5079065;28;20230;-89
2022/04/15 07:59:31;;;;;;;3.27;2.63;;;;;;;;;;5065407;28;20428;-90
2022/04/15 08:01:58;;;;;;;6.28;2.85;;;;;;;;;;5081563;28;20465;-93
2022/04/15 08:04:25;;;;;;;3.30;3.00;;;;;;;;;;5062159;28;20229;-90
2022/04/15 08:06:52;;;;;;;5.57;2.95;;;;;;;;;;5060993;28;20182;-87
2022/04/15 08:09:18;;;;;;;3.55;3.03;;;;;;;;;;5063041;28;20183;-87
2022/04/15 08:11:44;;;;;;;3.60;2.40;;;;;;;;;;5078559;28;20193;-89
2022/04/15 08:14:10;;;;;;;1.80;1.70;;;;;;;;;;5054333;28;20225;-87
2022/04/15 08:16:36;;;;;;;2.63;1.83;;;;;;;;;;5064097;28;20550;-90
2022/04/15 08:19:02;;;;;;;3.30;2.20;;;;;;;;;;5062886;28;20431;-88
2022/04/15 08:21:29;;;;;;;7.88;2.85;;;;;;;;;;5059798;28;20486;-87
2022/04/15 08:23:55;;;;;;;2.20;2.00;;;;;;;;;;5051755;28;20665;-89
2022/04/15 08:26:21;;;;;;;1.73;1.63;;;;;;;;;;5063898;28;20191;-86
2022/04/15 08:28:47;;;;;;;3.97;2.15;;;;;;;;;;5065635;28;20184;-89
2022/04/15 08:31:13;;;;;;;3.10;2.10;;;;;;;;;;5061437;28;20230;-88
2022/04/15 08:33:40;;;;;;;4.00;1.93;;;;;;;;;;5045619;28;20239;-87
2022/04/15 08:36:06;;;;;;;3.70;2.13;;;;;;;;;;5062930;28;20443;-90
2022/04/15 08:38:32;;;;;;;2.97;2.00;;;;;;;;;;5064375;28;20180;-92
2022/04/15 08:40:59;;;;;;;2.88;1.88;;;;;;;;;;5080309;28;20482;-91
2022/04/15 08:43:25;;;;;;;2.25;2.05;;;;;;;;;;5046411;28;20573;-90
2022/04/15 08:45:51;;;;;;;3.65;1.60;;;;;;;;;;5061698;28;20177;-90
2022/04/15 08:48:18;;;;;;;1.88;1.75;;;;;;;;;;5061560;28;20185;-93
2022/04/15 08:50:44;;;;;;;2.72;1.33;;;;;;;;;;5063074;28;20196;-88
2022/04/15 08:53:10;;;;;;;2.55;1.70;;;;;;;;;;5080514;28;20188;-91
2022/04/15 08:55:36;;;;;;;1.70;1.60;;;;;;;;;;5063678;28;20183;-90
2022/04/15 08:58:02;;;;;;;2.03;1.85;;;;;;;;;;5062984;28;20209;-90
2022/04/15 09:00:28;;;;;;;1.90;1.80;;;;;;;;;;5063167;28;20259;-90
2022/04/15 09:02:54;;;;;;;1.57;1.30;;;;;;;;;;5061202;28;20424;-92
2022/04/15 09:05:25;;;;;;;2.05;1.70;;;;;;;;;;5061705;28;20435;-91
2022/04/15 09:08:01;;;;;;;2.20;1.45;;;;;;;;;;5063014;28;20267;-91
2022/04/15 09:10:26;;;;;;;1.70;1.60;;;;;;;;;;5064016;28;20659;-91
2022/04/15 09:12:52;;;;;;;3.57;1.60;;;;;;;;;;5060920;28;20185;-85
2022/04/15 09:15:19;;;;;;;4.73;1.93;;;;;;;;;;5061418;28;20474;-90
2022/04/15 09:17:49;;;;;;;3.03;1.40;;;;;;;;;;5077710;28;20537;-90
2022/04/15 09:20:16;;;;;;;4.20;1.95;;;;;;;;;;5079327;28;20272;-86
2022/04/15 09:22:42;;;;;;;2.78;1.85;;;;;;;;;;5065073;28;20184;-91
2022/04/15 09:25:09;;;;;;;3.83;1.80;;;;;;;;;;5062333;28;20180;-90
2022/04/15 09:27:35;;;;;;;2.20;1.70;;;;;;;;;;5062398;28;20455;-91
2022/04/15 09:30:02;;;;;;;2.80;2.25;;;;;;;;;;5061124;28;20185;-90
2022/04/15 09:32:29;;;;;;;2.65;2.00;;;;;;;;;;5077715;28;20220;-91
2022/04/15 09:34:55;;;;;;;3.38;1.90;;;;;;;;;;5081477;28;20262;-90
2022/04/15 09:37:22;;;;;;;1.90;1.73;;;;;;;;;;5061637;28;20217;-91
2022/04/15 09:40:06;;;;;;;1.90;1.80;;;;;;;;;;5062528;28;20436;-89
2022/04/15 09:42:36;;;;;;;2.65;2.17;;;;;;;;;;5060762;28;20180;-90
2022/04/15 09:45:13;;;;;;;5.32;1.98;;;;;;;;;;5062069;28;20252;-87
2022/04/15 09:47:39;;;;;;;2.42;1.55;;;;;;;;;;5060882;28;20239;-92
2022/04/15 09:50:06;;;;;;;5.15;1.92;;;;;;;;;;5080481;28;20173;-88
2022/04/15 09:52:32;;;;;;;2.85;1.55;;;;;;;;;;5061091;28;20177;-92
2022/04/15 09:55:01;;;;;;;6.35;2.30;;;;;;;;;;5060375;28;20185;-92
2022/04/15 09:57:33;;;;;;;2.22;2.00;;;;;;;;;;5061801;28;20193;-91
2022/04/15 10:00:02;;;;;;;2.25;1.60;;;;;;;;;;5061734;28;20177;-89
2022/04/15 10:02:30;;;;;;;1.80;1.40;;;;;;;;;;5060116;28;20196;-89
2022/04/15 10:04:56;;;;;;;2.80;1.60;;;;;;;;;;5080004;28;20207;-89
2022/04/15 10:07:22;;;;;;;1.90;1.70;;;;;;;;;;5062564;28;20177;-90
2022/04/15 10:09:48;;;;;;;2.50;1.60;;;;;;;;;;5062181;28;20191;-90
2022/04/15 10:12:14;;;;;;;2.65;1.75;;;;;;;;;;5059659;28;20447;-93
2022/04/15 10:14:40;;;;;;;1.55;1.45;;;;;;;;;;5060554;28;20229;-91
2022/04/15 10:17:07;;;;;;;3.43;1.63;;;;;;;;;;5063600;28;20296;-88
2022/04/15 10:19:33;;;;;;;2.20;1.30;;;;;;;;;;5062961;28;20450;-85
2022/04/15 10:21:59;;;;;;;2.13;1.55;;;;;;;;;;5061322;28;20322;-91
2022/04/15 10:24:25;;;;;;;2.07;1.60;;;;;;;;;;5059379;28;20607;-90
2022/04/15 10:26:57;;;;;;;2.10;1.13;;;;;;;;;;5058113;28;20448;-89
2022/04/15 10:29:23;;;;;;;5.32;1.70;;;;;;;;;;5062777;28;20189;-89
2022/04/15 10:31:49;;;;;;;1.47;1.20;;;;;;;;;;5063854;28;20225;-91
2022/04/15 10:34:16;;;;;;;2.47;1.30;;;;;;;;;;5060097;28;20901;-91
2022/04/15 10:36:46;;;;;;;2.20;1.50;;;;;;;;;;5061411;28;20212;-88
2022/04/15 10:39:14;;;;;;;2.47;1.40;;;;;;;;;;5059157;28;20195;-90
2022/04/15 10:41:44;;;;;;;1.80;1.70;;;;;;;;;;5062031;28;20183;-89
2022/04/15 10:44:14;;;;;;;2.10;1.63;;;;;;;;;;5063604;28;20238;-90
2022/04/15 10:46:40;;;;;;;2.17;1.98;;;;;;;;;;5063330;28;20200;-92
2022/04/15 10:49:23;;;;;;;3.77;3.40;;;;;;;;;;5061436;28;20685;-87
2022/04/15 10:51:51;;;;;;;1.50;1.40;;;;;;;;;;5060898;28;20435;-87
2022/04/15 10:54:36;;;;;;;2.05;1.20;;;;;;;;;;5060250;28;20269;-89
2022/04/15 10:57:02;;;;;;;2.10;1.45;;;;;;;;;;5060098;28;20424;-93
2022/04/15 11:02:20;;;;;;;1.50;1.40;;;;;;;;;;5061567;28;20189;-92
2022/04/15 11:04:50;;;;;;;1.00;0.90;;;;;;;;;;5063087;28;20174;-91
2022/04/15 11:07:24;;;;;;;3.15;1.40;;;;;;;;;;5060529;28;20187;-90
2022/04/15 11:09:50;;;;;;;1.70;1.05;;;;;;;;;;5059199;28;20211;-91
2022/04/15 11:12:29;;;;;;;2.57;1.17;;;;;;;;;;5059987;28;20190;-86
2022/04/15 11:14:55;;;;;;;1.20;1.10;;;;;;;;;;5058631;28;20572;-85
2022/04/15 11:17:36;;;;;;;2.20;1.50;;;;;;;;;;5077282;28;20258;-88
2022/04/15 11:20:05;;;;;;;1.77;1.40;;;;;;;;;;5062413;28;20419;-93
2022/04/15 11:22:31;;;;;;;2.03;1.30;;;;;;;;;;5062358;28;20168;-91
2022/04/15 11:24:57;;;;;;;1.30;1.20;;;;;;;;;;5042952;28;20438;-92
2022/04/15 11:27:24;;;;;;;1.00;0.90;;;;;;;;;;5043015;28;20185;-91
2022/04/15 11:29:51;;;;;;;2.10;1.10;;;;;;;;;;5059207;28;20435;-92
2022/04/15 11:32:17;;;;;;;1.40;1.00;;;;;;;;;;5060931;28;20200;-86
2022/04/15 11:34:43;;;;;;;1.10;1.00;;;;;;;;;;5061915;28;20398;-93
2022/04/15 11:37:09;;;;;;;1.20;1.10;;;;;;;;;;5060948;28;20519;-95
2022/04/15 11:39:36;;;;;;;1.23;1.00;;;;;;;;;;5061559;28;20489;-93
2022/04/15 11:42:06;;;;;;;1.63;1.07;;;;;;;;;;5059677;28;20458;-90
2022/04/15 11:44:33;;;;;;;1.60;1.00;;;;;;;;;;5057269;28;20448;-90
2022/04/15 11:49:45;;;;;;;1.20;1.10;;;;;;;;;;5062365;28;20381;-93
2022/04/15 11:52:11;;;;;;;2.80;1.10;;;;;;;;;;5059516;28;20440;-88
2022/04/15 11:54:38;;;;;;;4.50;1.50;;;;;;;;;;5059999;28;20431;-92
2022/04/15 11:57:05;;;;;;;2.83;1.10;;;;;;;;;;5058749;28;20441;-91
2022/04/15 11:59:42;;;;;;;1.30;0.77;;;;;;;;;;5061213;28;20711;-87
2022/04/15 12:02:08;;;;;;;2.20;1.07;;;;;;;;;;5077908;28;20416;-86
2022/04/15 12:04:35;;;;;;;0.70;0.70;;;;;;;;;;5058836;28;20416;-89
2022/04/15 12:07:01;;;;;;;2.83;1.13;;;;;;;;;;5059496;28;20442;-87
2022/04/15 12:09:27;;;;;;;1.63;0.83;;;;;;;;;;5058474;28;20440;-87
2022/04/15 12:11:53;;;;;;;0.90;0.83;;;;;;;;;;5061650;28;20453;-86
2022/04/15 12:14:19;;;;;;;2.37;1.13;;;;;;;;;;5059826;28;20453;-84
2022/04/15 12:16:47;;;;;;;1.20;1.10;;;;;;;;;;5065201;28;20467;-89
2022/04/15 12:19:13;;;;;;;1.50;1.00;;;;;;;;;;5064072;28;20417;-88
2022/04/15 12:21:39;;;;;;;1.77;1.00;;;;;;;;;;5061951;28;20428;-88
2022/04/15 12:24:09;;;;;;;1.10;1.00;;;;;;;;;;5061834;28;20446;-87
2022/04/15 12:26:42;;;;;;;3.83;1.00;;;;;;;;;;5078203;28;20403;-86
2022/04/15 12:31:53;;;;;;;0.90;0.90;;;;;;;;;;5063561;28;20407;-91
2022/04/15 12:34:31;;;;;;;0.93;0.93;;;;;;;;;;5064074;28;20476;-90
2022/04/15 12:36:57;;;;;;;1.57;1.00;;;;;;;;;;5045246;28;20521;-86
2022/04/15 12:39:23;;;;;;;2.33;0.90;;;;;;;;;;5064218;28;20431;-83
2022/04/15 12:41:49;;;;;;;1.17;1.03;;;;;;;;;;5064584;28;20438;-88
2022/04/15 12:44:18;;;;;;;1.10;1.00;;;;;;;;;;5045909;28;20439;-86
2022/04/15 12:46:46;;;;;;;1.10;1.00;;;;;;;;;;5047320;28;20534;-88
2022/04/15 12:49:25;;;;;;;1.93;1.00;;;;;;;;;;5063406;28;20435;-86
2022/04/15 12:51:51;;;;;;;1.50;1.10;;;;;;;;;;5059500;28;20451;-90
2022/04/15 12:54:17;;;;;;;1.30;1.20;;;;;;;;;;5062204;28;20447;-85
2022/04/15 12:56:53;;;;;;;1.93;1.17;;;;;;;;;;5061995;28;20976;-90
2022/04/15 12:59:19;;;;;;;1.10;1.00;;;;;;;;;;5076981;28;20437;-91
2022/04/15 13:01:45;;;;;;;1.37;1.07;;;;;;;;;;5061003;28;20483;-90
2022/04/15 13:04:15;;;;;;;0.80;0.80;;;;;;;;;;5057767;28;20527;-88
2022/04/15 13:06:41;;;;;;;1.30;1.00;;;;;;;;;;5061980;28;20488;-88
2022/04/15 13:09:07;;;;;;;2.27;1.37;;;;;;;;;;5053779;28;20450;-82
2022/04/15 13:11:33;;;;;;;1.97;0.80;;;;;;;;;;5062565;28;20513;-88
2022/04/15 13:13:59;;;;;;;1.90;1.13;;;;;;;;;;5080954;28;20455;-90
2022/04/15 13:16:25;;;;;;;1.20;1.00;;;;;;;;;;5059217;28;20463;-92
2022/04/15 13:18:51;;;;;;;3.43;1.00;;;;;;;;;;5061323;28;20438;-87
2022/04/15 13:21:17;;;;;;;1.27;1.10;;;;;;;;;;5060633;28;20445;-87
2022/04/15 13:23:43;;;;;;;1.63;1.00;;;;;;;;;;5061849;28;20523;-86
2022/04/15 13:26:09;;;;;;;2.67;1.80;;;;;;;;;;5079889;28;20413;-86
2022/04/15 13:28:35;;;;;;;1.97;1.10;;;;;;;;;;5063715;28;20419;-89
2022/04/15 13:31:01;;;;;;;3.83;1.20;;;;;;;;;;5046828;28;20438;-87
2022/04/15 13:33:27;;;;;;;1.80;1.10;;;;;;;;;;5057041;28;20628;-90
2022/04/15 13:35:54;;;;;;;1.47;1.13;;;;;;;;;;5049414;28;20424;-89
2022/04/15 13:38:19;;;;;;;1.47;1.20;;;;;;;;;;5061394;28;20456;-85
2022/04/15 13:40:46;;;;;;;1.70;1.10;;;;;;;;;;5064590;28;20426;-85
2022/04/15 13:43:12;;;;;;;1.60;1.20;;;;;;;;;;5061024;28;20485;-87
2022/04/15 13:45:38;;;;;;;1.63;1.20;;;;;;;;;;5064789;28;20510;-85
2022/04/15 13:48:11;;;;;;;2.60;1.93;;;;;;;;;;5059262;28;20444;-88
2022/04/15 13:50:37;;;;;;;3.00;1.33;;;;;;;;;;5060426;28;20447;-88
2022/04/15 13:58:33;;;;;;;1.70;1.20;;;;;;;;;;5060896;28;20442;-89
2022/04/15 14:01:00;;;;;;;3.57;2.40;;;;;;;;;;5062305;28;20471;-93
2022/04/15 14:03:27;;;;;;;1.57;1.30;;;;;;;;;;5042282;28;20422;-87
2022/04/15 14:05:54;;;;;;;2.60;2.40;;;;;;;;;;5060453;28;20656;-85
2022/04/15 14:08:21;;;;;;;2.33;1.90;;;;;;;;;;5059910;28;20462;-85
2022/04/15 14:10:47;;;;;;;2.60;1.73;;;;;;;;;;5067535;28;20531;-87
2022/04/15 14:13:15;;;;;;;2.10;1.53;;;;;;;;;;5060106;28;20439;-82
2022/04/15 14:15:41;;;;;;;4.03;2.07;;;;;;;;;;5065864;28;20932;-82
2022/04/15 14:18:08;;;;;;;4.50;3.07;;;;;;;;;;5068409;28;20533;-85
2022/04/15 14:20:34;;;;;;;2.60;2.40;;;;;;;;;;5065699;28;20404;-83
2022/04/15 14:23:00;;;;;;;3.80;2.60;;;;;;;;;;5078754;28;20398;-86
2022/04/15 14:25:26;;;;;;;3.50;3.03;;;;;;;;;;5063949;28;20406;-84
2022/04/15 14:27:52;;;;;;;2.83;2.20;;;;;;;;;;5062271;28;20429;-82
2022/04/15 14:30:18;;;;;;;3.30;2.70;;;;;;;;;;5060184;28;20433;-83
2022/04/15 14:32:44;;;;;;;3.37;2.80;;;;;;;;;;5059301;28;20444;-82
2022/04/15 14:35:11;;;;;;;3.33;2.60;;;;;;;;;;5077152;28;20411;-84
2022/04/15 14:37:37;;;;;;;3.07;2.37;;;;;;;;;;5062783;28;21072;-84
2022/04/15 14:40:04;;;;;;;2.50;2.10;;;;;;;;;;5060345;28;20506;-83
2022/04/15 14:42:30;;;;;;;4.60;2.50;;;;;;;;;;5060183;28;20421;-81
2022/04/15 14:44:56;;;;;;;3.13;2.83;;;;;;;;;;5058577;28;20440;-85
2022/04/15 14:47:22;;;;;;;3.30;3.03;;;;;;;;;;5059665;28;20876;-81
2022/04/15 14:49:48;;;;;;;3.10;2.80;;;;;;;;;;5062743;28;20909;-82
2022/04/15 14:52:14;;;;;;;3.07;2.20;;;;;;;;;;5058783;28;20439;-83
2022/04/15 14:54:40;;;;;;;5.77;2.80;;;;;;;;;;5058793;28;20431;-84